Gurn Spring, New York
Current Conditions -  °F | °C
As of 4:53 AM on Friday 19 Dec 2014 (Local Time) from KGFL Reporting Station
Overcast Overcast  
Wind Chill: 22°   Ceiling: 4900
Heat Index: 30°   Visibility: 10mi
Dew Point: 20°   Wind: 9mph
Humidity: 66%   Direction: 340°NNW
Pressure: 29.95"   Gusts: NA
Location:  43.1979°N, 73.6839°W
Report Text: KGFL 190953Z AUTO 34008KT 10SM OVC049 M01/M07 A2995 RMK AO2 SLP150 T10111067
Loading
Personal Weather Stations






























Interactive Weather Map New forecast layout! Learn more

10-Day Weather Forecast

Advertisements
Track Severe Weather on mobile